createdAt,value
2019-01-18T00:01:22.421Z,99.90
2019-01-18T00:03:51.631Z,99.90
2019-01-18T00:06:21.154Z,99.90
2019-01-18T00:08:50.298Z,99.90
2019-01-18T00:11:19.469Z,99.90
2019-01-18T00:13:49.247Z,99.90
2019-01-18T00:16:18.421Z,99.90
2019-01-18T00:18:47.924Z,99.90
2019-01-18T00:21:17.175Z,99.90
2019-01-18T00:23:46.640Z,99.90
2019-01-18T00:26:15.962Z,99.90
2019-01-18T00:28:45.171Z,99.90
2019-01-18T00:31:15.100Z,99.90
2019-01-18T00:33:44.818Z,99.90
2019-01-18T00:36:13.962Z,99.90
2019-01-18T00:38:43.186Z,99.90
2019-01-18T00:41:12.358Z,99.90
2019-01-18T00:43:41.485Z,99.90
2019-01-18T00:46:10.960Z,99.90
2019-01-18T00:48:40.454Z,99.90
2019-01-18T00:51:10.265Z,99.90
2019-01-18T00:53:40.096Z,99.90
2019-01-18T00:56:09.669Z,99.90
2019-01-18T00:58:38.977Z,99.90
2019-01-18T01:01:08.660Z,99.90
2019-01-18T01:03:37.813Z,99.90
2019-01-18T01:06:07.003Z,99.90
2019-01-18T01:08:36.140Z,99.90
2019-01-18T01:11:05.319Z,99.90
2019-01-18T01:13:34.536Z,99.90
2019-01-18T01:16:03.751Z,99.90
2019-01-18T01:18:33.291Z,99.90
2019-01-18T01:21:02.531Z,99.90
2019-01-18T01:23:31.767Z,99.90
2019-01-18T01:26:00.962Z,99.90
2019-01-18T01:28:30.176Z,99.90
2019-01-18T01:30:59.673Z,99.90
2019-01-18T01:33:28.910Z,99.90
2019-01-18T01:35:58.358Z,99.90
2019-01-18T01:38:27.861Z,99.90
2019-01-18T01:40:57.028Z,99.90
2019-01-18T01:43:26.279Z,99.90
2019-01-18T01:45:55.538Z,99.90
2019-01-18T01:48:24.763Z,99.90
2019-01-18T01:50:53.902Z,99.90
2019-01-18T01:53:23.060Z,99.90
2019-01-18T01:55:52.192Z,99.90
2019-01-18T01:58:21.420Z,99.90
2019-01-18T02:00:50.659Z,99.90
2019-01-18T02:03:19.812Z,99.90
2019-01-18T02:05:48.958Z,99.90
2019-01-18T02:08:18.116Z,99.90
2019-01-18T02:10:47.359Z,99.90
2019-01-18T02:13:16.492Z,99.90
2019-01-18T02:15:45.706Z,99.90
2019-01-18T02:18:15.491Z,99.90
2019-01-18T02:20:45.072Z,99.90
2019-01-18T02:23:14.295Z,99.90
2019-01-18T02:25:43.846Z,99.90
2019-01-18T02:28:13.315Z,99.90
2019-01-18T02:30:42.446Z,99.90
2019-01-18T02:33:11.572Z,99.90
2019-01-18T02:35:40.753Z,99.90
2019-01-18T02:38:10.544Z,99.90
2019-01-18T02:40:40.050Z,99.90
2019-01-18T02:43:09.178Z,99.90
2019-01-18T02:45:38.639Z,99.90
2019-01-18T02:48:08.156Z,99.90
2019-01-18T02:50:37.661Z,99.90
2019-01-18T02:53:06.804Z,99.90
2019-01-18T02:55:36.091Z,99.90
2019-01-18T02:58:05.236Z,99.90
2019-01-18T03:00:34.743Z,99.90
2019-01-18T03:03:03.991Z,99.90
2019-01-18T03:05:33.204Z,99.90
2019-01-18T03:08:02.379Z,99.90
2019-01-18T03:10:32.641Z,99.90
2019-01-18T03:13:01.860Z,99.90
2019-01-18T03:15:31.174Z,99.90
2019-01-18T03:18:00.645Z,99.90
2019-01-18T03:20:29.777Z,99.90
2019-01-18T03:22:59.013Z,99.90
2019-01-18T03:25:29.579Z,99.90
2019-01-18T03:27:58.745Z,99.90
2019-01-18T03:30:27.963Z,99.90
2019-01-18T03:32:57.456Z,99.90
2019-01-18T03:35:26.633Z,99.90
2019-01-18T03:37:55.788Z,99.90
2019-01-18T03:40:25.357Z,99.90
2019-01-18T03:42:54.570Z,99.90
2019-01-18T03:45:23.726Z,99.90
2019-01-18T03:47:53.156Z,99.90
2019-01-18T03:50:24.351Z,99.90
2019-01-18T03:52:54.953Z,99.90
2019-01-18T03:55:24.577Z,99.90
2019-01-18T03:57:53.743Z,99.90
2019-01-18T04:00:26.410Z,99.90
2019-01-18T04:02:56.303Z,99.90
2019-01-18T04:05:25.886Z,99.90
2019-01-18T04:07:55.078Z,99.90
2019-01-18T04:10:24.491Z,99.90
2019-01-18T04:12:53.712Z,99.90
2019-01-18T04:15:24.167Z,99.90
2019-01-18T04:17:53.366Z,99.90
2019-01-18T04:20:23.146Z,99.90
2019-01-18T04:22:52.394Z,99.90
2019-01-18T04:25:29.061Z,99.90
2019-01-18T04:27:58.200Z,99.90
2019-01-18T04:30:33.395Z,99.90
2019-01-18T04:32:58.324Z,99.90
2019-01-18T04:35:27.641Z,99.90
2019-01-18T04:37:56.872Z,99.90
2019-01-18T04:40:26.864Z,99.90
2019-01-18T04:42:56.881Z,99.90
2019-01-18T04:45:26.340Z,99.90
2019-01-18T04:47:55.475Z,99.90
2019-01-18T04:50:26.159Z,99.90
2019-01-18T04:52:55.312Z,99.90
2019-01-18T04:55:25.000Z,99.90
2019-01-18T04:57:54.484Z,99.90
2019-01-18T05:00:28.941Z,99.90
2019-01-18T05:02:58.198Z,99.90
2019-01-18T05:05:27.358Z,99.90
2019-01-18T05:07:57.080Z,99.90
2019-01-18T05:10:27.730Z,99.90
2019-01-18T05:12:56.875Z,99.90
2019-01-18T05:15:29.163Z,99.90
2019-01-18T05:17:58.370Z,99.90
2019-01-18T05:20:27.535Z,99.90
2019-01-18T05:22:56.667Z,99.90
2019-01-18T05:25:26.197Z,99.90
2019-01-18T05:27:55.629Z,99.90
2019-01-18T05:30:26.700Z,99.90
2019-01-18T05:32:55.894Z,99.90
2019-01-18T05:35:25.118Z,99.90
2019-01-18T05:37:54.303Z,99.90
2019-01-18T05:40:23.620Z,99.90
2019-01-18T05:42:52.764Z,99.90
2019-01-18T05:45:22.469Z,99.90
2019-01-18T05:47:52.315Z,99.90
2019-01-18T05:50:26.633Z,99.90
2019-01-18T05:52:55.915Z,99.90
2019-01-18T05:55:25.926Z,99.90
2019-01-18T05:57:55.605Z,99.90
2019-01-18T06:00:34.867Z,99.90
2019-01-18T06:03:04.126Z,99.90
2019-01-18T06:05:34.778Z,99.90
2019-01-18T06:08:04.220Z,99.90
2019-01-18T06:10:33.792Z,99.90
2019-01-18T06:13:02.989Z,99.90
2019-01-18T06:15:32.489Z,99.90
2019-01-18T06:18:01.661Z,99.90
2019-01-18T06:20:31.427Z,99.90
2019-01-18T06:23:00.986Z,99.90
2019-01-18T06:25:30.214Z,99.90
2019-01-18T06:27:59.501Z,99.90
2019-01-18T06:30:29.319Z,99.90
2019-01-18T06:32:58.556Z,99.90
2019-01-18T06:35:27.722Z,99.90
2019-01-18T06:37:57.199Z,99.90
2019-01-18T06:40:26.414Z,99.90
2019-01-18T06:42:56.183Z,99.90
2019-01-18T06:45:26.247Z,99.90
2019-01-18T06:47:55.416Z,99.90
2019-01-18T06:50:24.584Z,99.90
2019-01-18T06:52:53.802Z,99.90
2019-01-18T06:55:23.010Z,99.90
2019-01-18T06:57:52.148Z,99.90
2019-01-18T07:00:26.863Z,99.90
2019-01-18T07:02:56.236Z,99.90
2019-01-18T07:05:25.411Z,99.90
2019-01-18T07:07:54.563Z,99.90
2019-01-18T07:10:23.963Z,99.90
2019-01-18T07:12:53.417Z,99.90
2019-01-18T07:15:22.576Z,99.90
2019-01-18T07:17:51.725Z,99.90
2019-01-18T07:20:21.422Z,99.90
2019-01-18T07:22:50.567Z,99.90
2019-01-18T07:25:25.339Z,99.90
2019-01-18T07:27:54.497Z,99.90
2019-01-18T07:30:32.457Z,99.90
2019-01-18T07:33:02.251Z,99.90
2019-01-18T07:35:31.497Z,99.90
2019-01-18T07:38:00.917Z,99.90
2019-01-18T07:40:30.099Z,99.90
2019-01-18T07:42:59.931Z,99.90
2019-01-18T07:45:29.596Z,99.90
2019-01-18T07:47:58.762Z,99.90
2019-01-18T07:50:27.902Z,99.90
2019-01-18T07:52:58.779Z,99.90
2019-01-18T07:55:27.956Z,99.90
2019-01-18T07:57:57.100Z,99.90
2019-01-18T08:00:28.054Z,99.90
2019-01-18T08:02:57.528Z,99.90
2019-01-18T08:05:29.019Z,99.90
2019-01-18T08:07:58.279Z,99.90
2019-01-18T08:10:28.093Z,99.90
2019-01-18T08:12:58.000Z,99.90
2019-01-18T08:15:28.822Z,99.90
2019-01-18T08:17:58.747Z,99.90
2019-01-18T08:20:29.639Z,99.90
2019-01-18T08:22:59.152Z,99.90
2019-01-18T08:25:28.377Z,99.90
2019-01-18T08:27:57.962Z,99.90
2019-01-18T08:30:28.848Z,99.90
2019-01-18T08:32:58.028Z,99.90
2019-01-18T08:35:27.789Z,99.90
2019-01-18T08:37:56.947Z,99.90
2019-01-18T08:40:31.204Z,99.90
2019-01-18T08:43:00.411Z,99.90
2019-01-18T08:45:44.578Z,99.90
2019-01-18T08:48:13.719Z,99.90
2019-01-18T08:50:43.858Z,99.90
2019-01-18T08:53:13.303Z,99.90
2019-01-18T08:55:42.538Z,99.90
2019-01-18T08:58:11.994Z,99.90
2019-01-18T09:00:41.169Z,99.90
2019-01-18T09:03:10.318Z,99.90
2019-01-18T09:05:39.504Z,99.90
2019-01-18T09:08:08.656Z,99.90
2019-01-18T09:10:38.504Z,99.90
2019-01-18T09:13:07.742Z,99.90
2019-01-18T09:15:37.370Z,99.90
2019-01-18T09:18:07.177Z,99.90
2019-01-18T09:20:36.400Z,99.90
2019-01-18T09:23:05.861Z,99.90
2019-01-18T09:25:35.021Z,99.90
2019-01-18T09:28:04.315Z,99.90
2019-01-18T09:30:34.443Z,99.90
2019-01-18T09:33:06.086Z,99.90
2019-01-18T09:35:36.023Z,99.90
2019-01-18T09:38:08.063Z,99.90
2019-01-18T09:40:37.408Z,99.90
2019-01-18T09:43:07.367Z,99.90
2019-01-18T09:45:36.939Z,99.90
2019-01-18T09:48:07.980Z,99.90
2019-01-18T09:50:37.138Z,99.90
2019-01-18T09:53:08.123Z,99.90
2019-01-18T09:55:37.291Z,99.90
2019-01-18T09:58:06.570Z,99.90
2019-01-18T10:00:37.772Z,99.90
2019-01-18T10:03:06.949Z,99.90
2019-01-18T10:05:36.187Z,99.90
2019-01-18T10:08:07.279Z,99.90
2019-01-18T10:10:37.245Z,99.90
2019-01-18T10:13:06.421Z,99.90
2019-01-18T10:15:38.903Z,99.90
2019-01-18T10:18:08.066Z,99.90
2019-01-18T10:20:37.220Z,99.90
2019-01-18T10:23:06.390Z,99.90
2019-01-18T10:25:35.547Z,99.90
2019-01-18T10:28:04.699Z,99.90
2019-01-18T10:30:34.463Z,99.90
2019-01-18T10:33:03.658Z,99.90
2019-01-18T10:35:33.095Z,99.90
2019-01-18T10:38:02.259Z,99.90
2019-01-18T10:40:32.105Z,99.90
2019-01-18T10:43:01.264Z,99.90
2019-01-18T10:45:30.497Z,99.90
2019-01-18T10:48:00.059Z,99.90
2019-01-18T10:50:31.517Z,99.90
2019-01-18T10:53:01.142Z,99.90
2019-01-18T10:55:30.366Z,99.90
2019-01-18T10:57:59.569Z,99.90
2019-01-18T11:00:31.312Z,99.90
2019-01-18T11:03:01.113Z,99.90
2019-01-18T11:05:30.632Z,99.90
2019-01-18T11:08:00.298Z,99.90
2019-01-18T11:10:29.496Z,99.90
2019-01-18T11:12:58.667Z,99.90
2019-01-18T11:15:29.686Z,99.90
2019-01-18T11:17:58.860Z,99.90
2019-01-18T11:20:51.032Z,99.90
2019-01-18T11:23:19.956Z,99.90
2019-01-18T11:25:49.107Z,99.90
2019-01-18T11:28:18.580Z,99.90
2019-01-18T11:30:48.062Z,99.90
2019-01-18T11:33:17.251Z,99.90
2019-01-18T11:35:46.496Z,99.90
2019-01-18T11:38:16.074Z,99.80
2019-01-18T11:40:48.266Z,99.50
2019-01-18T11:43:18.122Z,99.90
2019-01-18T11:45:47.291Z,99.90
2019-01-18T11:48:16.505Z,99.90
2019-01-18T11:50:45.717Z,99.90
2019-01-18T11:53:15.490Z,99.90
2019-01-18T11:55:45.062Z,99.70
2019-01-18T11:58:14.226Z,98.40
2019-01-18T12:00:43.734Z,97.60
2019-01-18T12:03:13.385Z,96.70
2019-01-18T12:05:42.918Z,96.70
2019-01-18T12:08:12.383Z,95.60
2019-01-18T12:10:41.594Z,94.40
2019-01-18T12:13:10.860Z,94.60
2019-01-18T12:15:40.022Z,94.30
2019-01-18T12:18:09.556Z,94.50
2019-01-18T12:20:38.771Z,95.20
2019-01-18T12:23:08.584Z,94.20
2019-01-18T12:25:38.070Z,94.40
2019-01-18T12:28:07.566Z,94.40
2019-01-18T12:30:37.292Z,94.60
2019-01-18T12:33:06.631Z,94.30
2019-01-18T12:35:35.793Z,94.80
2019-01-18T12:38:05.144Z,95.50
2019-01-18T12:40:34.702Z,95.60
2019-01-18T12:43:04.193Z,95.10
2019-01-18T12:45:33.699Z,95.00
2019-01-18T12:48:02.929Z,94.60
2019-01-18T12:50:37.403Z,94.90
2019-01-18T12:53:07.534Z,94.10
2019-01-18T12:55:36.691Z,95.10
2019-01-18T12:58:06.274Z,95.80
2019-01-18T13:00:35.592Z,94.20
2019-01-18T13:03:05.496Z,94.00
2019-01-18T13:05:38.141Z,93.30
2019-01-18T13:08:07.746Z,93.60
2019-01-18T13:10:37.384Z,93.10
2019-01-18T13:13:06.648Z,92.20
2019-01-18T13:15:43.002Z,91.50
2019-01-18T13:18:12.399Z,90.40
2019-01-18T13:20:41.640Z,90.10
2019-01-18T13:23:11.101Z,90.40
2019-01-18T13:25:40.682Z,89.10
2019-01-18T13:28:10.185Z,87.10
2019-01-18T13:30:39.333Z,86.70
2019-01-18T13:33:08.506Z,84.90
2019-01-18T13:35:37.924Z,84.10
2019-01-18T13:38:07.107Z,82.30
2019-01-18T13:40:36.233Z,84.80
2019-01-18T13:43:08.587Z,81.80
2019-01-18T13:45:37.724Z,79.20
2019-01-18T13:48:06.898Z,79.20
2019-01-18T13:50:36.137Z,83.50
2019-01-18T13:53:06.381Z,87.90
2019-01-18T13:55:35.528Z,89.70
2019-01-18T13:58:04.700Z,90.40
2019-01-18T14:00:33.832Z,90.40
2019-01-18T14:03:02.962Z,91.00
2019-01-18T14:05:32.195Z,91.40
2019-01-18T14:08:01.393Z,92.50
2019-01-18T14:10:30.806Z,93.50
2019-01-18T14:12:59.969Z,94.20
2019-01-18T14:15:29.145Z,94.90
2019-01-18T14:17:58.303Z,95.70
2019-01-18T14:20:28.124Z,96.80
2019-01-18T14:22:57.253Z,97.80
2019-01-18T14:25:26.424Z,97.50
2019-01-18T14:27:55.650Z,97.90
2019-01-18T14:30:25.974Z,98.00
2019-01-18T14:32:56.037Z,98.10
2019-01-18T14:35:25.760Z,98.50
2019-01-18T14:37:54.912Z,99.00
2019-01-18T14:40:24.143Z,99.10
2019-01-18T14:42:53.297Z,99.30
2019-01-18T14:45:28.219Z,99.70
2019-01-18T14:47:57.695Z,99.90
2019-01-18T14:50:26.942Z,99.90
2019-01-18T14:52:56.221Z,99.90
2019-01-18T14:55:25.356Z,99.90
2019-01-18T14:57:55.144Z,99.90
2019-01-18T15:00:31.201Z,99.90
2019-01-18T15:03:02.420Z,99.90
2019-01-18T15:05:31.932Z,99.90
2019-01-18T15:08:01.081Z,99.90
2019-01-18T15:10:30.611Z,99.90
2019-01-18T15:13:02.566Z,99.90
2019-01-18T15:15:31.773Z,99.90
2019-01-18T15:18:01.265Z,99.90
2019-01-18T15:20:31.837Z,99.90
2019-01-18T15:23:01.526Z,99.90
2019-01-18T15:25:31.128Z,99.90
2019-01-18T15:28:01.036Z,99.90
2019-01-18T15:30:31.314Z,99.90
2019-01-18T15:33:00.917Z,99.90
2019-01-18T15:35:39.643Z,99.90
2019-01-18T15:38:10.692Z,99.90
2019-01-18T15:40:46.046Z,99.90
2019-01-18T15:43:20.814Z,99.90
2019-01-18T15:45:50.120Z,99.90
2019-01-18T15:48:19.588Z,99.90
2019-01-18T15:50:49.116Z,99.90
2019-01-18T15:53:18.690Z,99.90
2019-01-18T15:55:48.380Z,99.90
2019-01-18T15:58:17.542Z,99.90
2019-01-18T16:00:46.782Z,99.90
2019-01-18T16:03:16.329Z,99.90
2019-01-18T16:05:45.931Z,99.90
2019-01-18T16:08:15.093Z,99.90
2019-01-18T16:10:44.614Z,99.90
2019-01-18T16:13:14.478Z,99.90
2019-01-18T16:15:56.296Z,99.90
2019-01-18T16:18:25.904Z,99.90
2019-01-18T16:20:55.812Z,99.90
2019-01-18T16:23:25.040Z,99.90
2019-01-18T16:25:54.185Z,99.90
2019-01-18T16:28:23.350Z,99.90
2019-01-18T16:30:52.494Z,99.90
2019-01-18T16:33:23.560Z,99.90
2019-01-18T16:35:52.973Z,99.90
2019-01-18T16:38:22.248Z,99.90
2019-01-18T16:40:51.504Z,99.90
2019-01-18T16:43:41.117Z,99.90
2019-01-18T16:46:10.289Z,99.90
2019-01-18T16:48:39.511Z,99.90
2019-01-18T16:51:08.965Z,99.90
2019-01-18T16:53:38.611Z,99.90
2019-01-18T16:56:07.920Z,99.90
2019-01-18T16:58:37.458Z,99.90
2019-01-18T17:01:08.347Z,99.90
2019-01-18T17:03:37.581Z,99.90
2019-01-18T17:06:07.175Z,99.90
2019-01-18T17:08:36.415Z,99.90
2019-01-18T17:11:06.054Z,99.90
2019-01-18T17:13:38.050Z,99.90
2019-01-18T17:16:08.375Z,99.90
2019-01-18T17:18:37.944Z,99.90
2019-01-18T17:21:07.177Z,99.90
2019-01-18T17:23:36.322Z,99.90
2019-01-18T17:26:07.657Z,99.90
2019-01-18T17:28:36.804Z,99.90
2019-01-18T17:31:07.256Z,99.90
2019-01-18T17:33:41.627Z,99.90
2019-01-18T17:36:55.807Z,99.90
2019-01-18T17:39:43.781Z,99.90
2019-01-18T17:42:42.343Z,99.90
2019-01-18T17:45:41.025Z,99.90
2019-01-18T17:48:56.804Z,99.90
2019-01-18T17:51:50.882Z,99.90
2019-01-18T17:55:00.644Z,99.90
2019-01-18T17:58:04.413Z,99.90
2019-01-18T18:01:11.859Z,99.90
2019-01-18T18:04:46.283Z,99.90
2019-01-18T18:07:37.644Z,99.90
2019-01-18T18:10:57.187Z,99.90
2019-01-18T18:14:01.042Z,99.90
2019-01-18T18:17:18.170Z,99.90
2019-01-18T18:20:14.272Z,99.90
2019-01-18T18:23:13.708Z,99.90
2019-01-18T18:26:17.024Z,99.90
2019-01-18T18:29:40.739Z,99.90
2019-01-18T18:32:54.320Z,99.90
2019-01-18T18:36:15.364Z,99.90
2019-01-18T18:39:19.232Z,99.90
2019-01-18T18:42:10.376Z,99.90
2019-01-18T18:45:19.765Z,99.90
2019-01-18T18:48:30.158Z,99.90
2019-01-18T18:51:40.699Z,99.90
2019-01-18T18:55:09.087Z,99.90
2019-01-18T18:58:15.411Z,99.90
2019-01-18T19:01:33.973Z,99.90
2019-01-18T19:04:21.743Z,99.90
2019-01-18T19:07:43.023Z,99.90
2019-01-18T19:11:02.286Z,99.90
2019-01-18T19:14:16.158Z,99.90
2019-01-18T19:16:55.192Z,99.90
2019-01-18T19:19:49.784Z,99.90
2019-01-18T19:22:49.556Z,99.90
2019-01-18T19:25:39.698Z,99.90
2019-01-18T19:29:08.085Z,99.90
2019-01-18T19:32:17.340Z,99.90
2019-01-18T19:35:24.889Z,99.90
2019-01-18T19:38:39.794Z,99.90
2019-01-18T19:42:11.036Z,99.90
2019-01-18T19:45:31.581Z,99.90
2019-01-18T19:48:21.399Z,99.90
2019-01-18T19:51:16.443Z,99.90
2019-01-18T19:54:03.938Z,99.90
2019-01-18T19:57:35.444Z,99.90
2019-01-18T20:00:51.454Z,99.90
2019-01-18T20:03:57.262Z,99.90
2019-01-18T20:07:18.706Z,99.90
2019-01-18T20:10:16.639Z,99.90
2019-01-18T20:13:07.192Z,99.90
2019-01-18T20:16:13.468Z,99.90
2019-01-18T20:19:09.202Z,99.90
2019-01-18T20:22:26.210Z,99.90
2019-01-18T20:25:12.782Z,99.90
2019-01-18T20:27:58.437Z,99.90
2019-01-18T20:30:55.492Z,99.90
2019-01-18T20:34:05.427Z,99.90
2019-01-18T20:37:05.941Z,99.90
2019-01-18T20:40:12.367Z,99.90
2019-01-18T20:43:11.893Z,99.90
2019-01-18T20:46:07.486Z,99.90
2019-01-18T20:48:49.185Z,99.90
2019-01-18T20:52:11.339Z,99.90
2019-01-18T20:55:21.664Z,99.90
2019-01-18T20:58:10.952Z,99.90
2019-01-18T21:00:51.079Z,99.90
2019-01-18T21:04:03.114Z,99.90
2019-01-18T21:06:48.797Z,99.90
2019-01-18T21:09:29.667Z,99.90
2019-01-18T21:12:40.978Z,99.90
2019-01-18T21:15:44.562Z,99.90
2019-01-18T21:18:57.540Z,99.90
2019-01-18T21:21:52.474Z,99.90
2019-01-18T21:24:59.157Z,99.90
2019-01-18T21:28:10.068Z,99.90
2019-01-18T21:31:32.472Z,99.90
2019-01-18T21:34:35.115Z,99.90
2019-01-18T21:37:51.446Z,99.90
2019-01-18T21:41:05.276Z,99.90
2019-01-18T21:44:18.809Z,99.90
2019-01-18T21:47:12.351Z,99.90
2019-01-18T21:49:53.847Z,99.90
2019-01-18T21:53:13.215Z,99.90
2019-01-18T21:56:16.787Z,99.90
2019-01-18T21:59:14.905Z,99.90
2019-01-18T22:02:46.516Z,99.90
2019-01-18T22:05:46.399Z,99.90
2019-01-18T22:08:52.754Z,99.90
2019-01-18T22:12:03.701Z,99.90
2019-01-18T22:14:49.562Z,99.90
2019-01-18T22:17:38.821Z,99.90
2019-01-18T22:20:18.938Z,99.90
2019-01-18T22:23:14.388Z,99.90
2019-01-18T22:26:33.833Z,99.90
2019-01-18T22:29:26.063Z,99.90
2019-01-18T22:32:30.583Z,99.90
2019-01-18T22:35:46.672Z,99.90
2019-01-18T22:38:45.249Z,99.90
2019-01-18T22:41:40.938Z,99.90
2019-01-18T22:44:22.161Z,99.90
2019-01-18T22:47:51.217Z,99.90
2019-01-18T22:50:48.195Z,99.90
2019-01-18T22:54:01.702Z,99.90
2019-01-18T22:57:03.117Z,99.90
2019-01-18T23:00:43.124Z,99.90
2019-01-18T23:03:51.763Z,99.90
2019-01-18T23:07:06.249Z,99.90
2019-01-18T23:10:21.862Z,99.90
2019-01-18T23:13:19.862Z,99.90
2019-01-18T23:16:15.352Z,99.90
2019-01-18T23:19:11.376Z,99.90
2019-01-18T23:22:07.581Z,99.90
2019-01-18T23:25:06.624Z,99.90
2019-01-18T23:28:01.378Z,99.90
2019-01-18T23:30:43.178Z,99.90
2019-01-18T23:34:11.555Z,99.90
2019-01-18T23:36:54.085Z,99.90
2019-01-18T23:40:00.691Z,99.90
2019-01-18T23:42:56.430Z,99.90
2019-01-18T23:46:03.839Z,99.90
2019-01-18T23:48:51.883Z,99.90
2019-01-18T23:51:39.224Z,99.90
2019-01-18T23:54:32.319Z,99.90
2019-01-18T23:57:24.467Z,99.90
